Time;durP1;ratioP1;P1;durP2;ratioP2;P2;SDS_P1;SDS_P2;PMS_P1;PMS_P2;Temp;Humidity;BMP_temperature;BMP_pressure;BME280_temperature;BME280_humidity;BME280_pressure;Samples;Min_cycle;Max_cycle;Signal;HPM_P1;HPM_P2
2023/05/14 00:00:49;;;;;;;3.97;3.58;;;21.70;67.40;;;;;;4891270;28;87893;-89
2023/05/14 00:03:14;;;;;;;4.15;3.75;;;21.70;67.40;;;;;;4893365;28;87628;-88
2023/05/14 00:05:40;;;;;;;3.90;3.50;;;21.70;67.40;;;;;;4891942;28;87317;-89
2023/05/14 00:08:05;;;;;;;3.90;3.35;;;21.60;67.50;;;;;;4893102;28;87165;-86
2023/05/14 00:10:31;;;;;;;4.03;3.67;;;21.70;67.50;;;;;;4893828;28;87748;-88
2023/05/14 00:12:57;;;;;;;4.30;3.45;;;21.60;67.50;;;;;;4892318;28;87441;-88
2023/05/14 00:15:23;;;;;;;4.90;3.92;;;21.60;67.70;;;;;;4893121;28;87462;-88
2023/05/14 00:17:48;;;;;;;4.22;3.80;;;21.60;67.60;;;;;;4891261;28;89353;-88
2023/05/14 00:20:14;;;;;;;5.03;3.88;;;21.60;67.70;;;;;;4891817;28;89972;-89
2023/05/14 00:22:40;;;;;;;5.80;3.53;;;21.60;67.80;;;;;;4893184;28;87796;-88
2023/05/14 00:25:06;;;;;;;3.85;3.47;;;21.60;67.70;;;;;;4884174;28;88058;-86
2023/05/14 00:27:33;;;;;;;4.15;3.75;;;21.60;67.60;;;;;;4893178;28;88099;-88
2023/05/14 00:29:58;;;;;;;3.92;3.28;;;21.60;67.70;;;;;;4891911;28;87315;-87
2023/05/14 00:32:24;;;;;;;4.18;3.78;;;21.60;67.70;;;;;;4883410;28;90354;-86
2023/05/14 00:34:50;;;;;;;3.85;3.40;;;21.60;67.70;;;;;;4892682;28;87457;-89
2023/05/14 00:37:15;;;;;;;5.43;3.88;;;21.60;67.80;;;;;;4891632;28;88285;-86
2023/05/14 00:39:41;;;;;;;3.55;3.22;;;21.60;67.60;;;;;;4892987;28;88272;-90
2023/05/14 00:42:07;;;;;;;4.03;3.60;;;21.60;67.70;;;;;;4892365;28;88135;-88
2023/05/14 00:44:32;;;;;;;3.35;3.05;;;21.60;67.80;;;;;;4891597;28;88176;-88
2023/05/14 00:46:59;;;;;;;3.65;3.35;;;21.60;67.80;;;;;;4890070;28;88122;-87
2023/05/14 00:49:25;;;;;;;3.80;3.40;;;21.60;67.90;;;;;;4893086;28;87999;-86
2023/05/14 00:51:52;;;;;;;4.03;3.15;;;21.60;67.80;;;;;;4891613;28;87624;-89
2023/05/14 00:54:19;;;;;;;4.07;3.53;;;21.50;67.90;;;;;;4892271;28;87732;-86
2023/05/14 00:56:46;;;;;;;3.85;3.50;;;21.50;67.90;;;;;;4905512;28;89867;-90
2023/05/14 00:59:12;;;;;;;3.75;3.45;;;21.50;68.00;;;;;;4890912;28;88003;-88
2023/05/14 01:01:38;;;;;;;4.95;3.55;;;21.50;67.70;;;;;;4891700;28;90797;-86
2023/05/14 01:04:05;;;;;;;4.20;3.83;;;21.50;67.90;;;;;;4906693;28;87425;-87
2023/05/14 01:06:56;;;;;;;3.72;3.30;;;21.50;67.80;;;;;;4891189;28;88005;-89
2023/05/14 01:09:33;;;;;;;4.15;3.30;;;21.50;67.80;;;;;;4890629;28;89079;-88
2023/05/14 01:12:19;;;;;;;4.57;3.60;;;21.50;68.60;;;;;;4890565;28;89354;-87
2023/05/14 01:15:07;;;;;;;3.78;3.47;;;21.50;67.60;;;;;;4890138;28;87277;-86
2023/05/14 01:17:47;;;;;;;3.93;3.63;;;21.50;67.80;;;;;;4891699;28;87662;-85
2023/05/14 01:20:14;;;;;;;3.78;3.47;;;21.50;67.80;;;;;;4885062;28;87659;-88
2023/05/14 01:22:39;;;;;;;4.13;3.63;;;21.50;67.80;;;;;;4902529;28;87937;-88
2023/05/14 01:25:06;;;;;;;3.80;3.38;;;21.50;67.90;;;;;;4888996;28;87633;-87
2023/05/14 01:27:41;;;;;;;4.00;3.60;;;21.50;67.80;;;;;;4890983;28;87692;-85
2023/05/14 01:30:22;;;;;;;3.70;3.40;;;21.50;67.80;;;;;;4891436;28;88244;-89
2023/05/14 01:32:51;;;;;;;3.78;3.47;;;21.50;68.00;;;;;;4906509;28;87655;-85
2023/05/14 01:35:17;;;;;;;3.60;3.30;;;21.50;68.00;;;;;;4890538;28;90104;-87
2023/05/14 01:37:44;;;;;;;3.70;3.40;;;21.50;67.80;;;;;;4891903;28;87888;-85
2023/05/14 01:40:10;;;;;;;3.90;3.60;;;21.50;67.80;;;;;;4890693;28;88139;-87
2023/05/14 01:42:37;;;;;;;4.03;3.65;;;21.50;68.60;;;;;;4891715;28;87740;-89
2023/05/14 01:45:03;;;;;;;4.50;3.40;;;21.50;67.90;;;;;;4890379;28;87959;-88
2023/05/14 01:47:29;;;;;;;3.72;3.40;;;21.50;67.80;;;;;;4889361;28;89604;-86
2023/05/14 01:49:54;;;;;;;3.83;3.50;;;21.40;67.70;;;;;;4892063;28;88076;-89
2023/05/14 01:52:20;;;;;;;3.78;3.30;;;21.50;67.70;;;;;;4889914;28;90547;-88
2023/05/14 01:54:48;;;;;;;3.88;3.10;;;21.50;67.90;;;;;;4891051;28;87524;-88
2023/05/14 01:57:14;;;;;;;3.38;3.08;;;21.40;67.90;;;;;;4890901;28;88884;-87
2023/05/14 01:59:40;;;;;;;4.10;3.50;;;21.40;68.00;;;;;;4891025;28;89200;-87
2023/05/14 02:02:05;;;;;;;3.75;3.45;;;21.40;67.90;;;;;;4891433;28;88861;-87
2023/05/14 02:04:31;;;;;;;3.33;3.13;;;21.40;67.90;;;;;;4890533;28;86756;-87
2023/05/14 02:06:57;;;;;;;4.30;3.92;;;21.40;67.80;;;;;;4888975;28;87714;-89
2023/05/14 02:09:23;;;;;;;3.90;3.60;;;21.40;67.80;;;;;;4889132;28;88903;-88
2023/05/14 02:11:49;;;;;;;5.15;3.58;;;21.40;67.90;;;;;;4888887;28;90605;-87
2023/05/14 02:14:14;;;;;;;4.10;3.70;;;21.30;67.80;;;;;;4890244;28;87494;-88
2023/05/14 02:16:40;;;;;;;3.42;3.13;;;21.40;67.90;;;;;;4891777;28;87410;-87
2023/05/14 02:19:06;;;;;;;3.58;3.20;;;21.40;67.80;;;;;;4897493;28;87423;-86
2023/05/14 02:21:32;;;;;;;3.70;3.40;;;21.40;68.20;;;;;;4893845;28;87336;-89
2023/05/14 02:23:57;;;;;;;3.60;3.30;;;21.40;68.10;;;;;;4894700;28;87870;-87
2023/05/14 02:26:23;;;;;;;3.30;3.00;;;21.30;68.00;;;;;;4893911;28;88807;-88
2023/05/14 02:28:49;;;;;;;4.00;3.60;;;21.30;68.00;;;;;;4894228;28;87588;-85
2023/05/14 02:31:16;;;;;;;4.18;3.65;;;21.30;68.10;;;;;;4894988;28;88110;-85
2023/05/14 02:33:41;;;;;;;4.15;3.80;;;21.30;68.10;;;;;;4893779;28;87762;-88
2023/05/14 02:36:07;;;;;;;5.00;3.63;;;21.30;68.10;;;;;;4891842;28;87685;-85
2023/05/14 02:38:33;;;;;;;3.70;3.40;;;21.30;68.10;;;;;;4892129;28;89821;-88
2023/05/14 02:40:58;;;;;;;3.90;3.50;;;21.30;68.00;;;;;;4894632;28;89083;-88
2023/05/14 02:43:24;;;;;;;4.30;3.90;;;21.30;68.10;;;;;;4892853;28;87330;-88
2023/05/14 02:45:50;;;;;;;4.00;3.63;;;21.30;68.30;;;;;;4893095;28;87255;-86
2023/05/14 02:48:15;;;;;;;3.65;3.22;;;21.30;68.10;;;;;;4893450;28;89146;-89
2023/05/14 02:50:41;;;;;;;3.83;3.45;;;21.30;68.20;;;;;;4892699;28;90864;-88
2023/05/14 02:53:07;;;;;;;3.33;3.03;;;21.30;68.20;;;;;;4892910;28;87705;-88
2023/05/14 02:55:33;;;;;;;4.70;3.50;;;21.30;68.10;;;;;;4892628;28;87923;-86
2023/05/14 02:57:59;;;;;;;3.60;3.30;;;21.30;68.10;;;;;;4893898;28;87604;-87
2023/05/14 03:00:25;;;;;;;3.92;3.55;;;21.30;68.80;;;;;;4892637;28;90635;-89
2023/05/14 03:02:50;;;;;;;4.10;3.70;;;21.30;68.20;;;;;;4893123;28;87950;-86
2023/05/14 03:05:16;;;;;;;4.03;3.63;;;21.30;68.10;;;;;;4883615;28;89426;-85
2023/05/14 03:07:41;;;;;;;3.60;3.30;;;21.30;68.30;;;;;;4893556;28;87455;-88
2023/05/14 03:10:07;;;;;;;3.72;3.42;;;21.30;68.10;;;;;;4891424;28;89935;-85
2023/05/14 03:12:33;;;;;;;3.83;3.53;;;21.30;68.00;;;;;;4890912;28;88568;-87
2023/05/14 03:14:59;;;;;;;3.97;3.42;;;21.30;68.30;;;;;;4889589;28;87370;-88
2023/05/14 03:17:24;;;;;;;3.78;3.47;;;21.20;68.10;;;;;;4890898;28;90524;-87
2023/05/14 03:19:50;;;;;;;3.80;3.45;;;21.20;68.00;;;;;;4891629;28;89701;-88
2023/05/14 03:22:16;;;;;;;3.65;3.35;;;21.30;68.10;;;;;;4893832;28;87942;-88
2023/05/14 03:24:41;;;;;;;3.70;3.40;;;21.30;68.10;;;;;;4892073;28;93415;-87
2023/05/14 03:27:07;;;;;;;3.55;3.25;;;21.20;68.20;;;;;;4894082;28;87802;-86
2023/05/14 03:29:33;;;;;;;3.60;3.30;;;21.30;68.20;;;;;;4892236;28;88043;-86
2023/05/14 03:31:58;;;;;;;3.72;3.40;;;21.20;68.10;;;;;;4891473;28;87479;-88
2023/05/14 03:34:24;;;;;;;4.07;3.70;;;21.20;68.60;;;;;;4892794;28;89784;-89
2023/05/14 03:36:50;;;;;;;3.67;3.33;;;21.20;68.20;;;;;;4890816;28;90617;-87
2023/05/14 03:39:18;;;;;;;3.75;3.45;;;21.20;68.20;;;;;;4887703;28;89623;-85
2023/05/14 03:41:45;;;;;;;3.83;3.53;;;21.20;68.10;;;;;;4874057;28;88235;-86
2023/05/14 03:44:11;;;;;;;3.90;3.60;;;21.20;68.00;;;;;;4873840;28;87324;-88
2023/05/14 03:46:37;;;;;;;3.67;3.38;;;21.20;68.40;;;;;;4874746;28;88000;-86
2023/05/14 03:49:03;;;;;;;4.18;3.78;;;21.20;68.10;;;;;;4887169;28;88949;-88
2023/05/14 03:51:28;;;;;;;3.45;3.15;;;21.20;68.10;;;;;;4888694;28;87349;-88
2023/05/14 03:53:54;;;;;;;3.33;3.08;;;21.20;68.10;;;;;;4873293;28;87231;-89
2023/05/14 03:56:20;;;;;;;3.75;3.40;;;21.20;67.90;;;;;;4888618;28;88954;-88
2023/05/14 03:58:45;;;;;;;3.53;3.22;;;21.20;68.10;;;;;;4874464;28;87512;-88
2023/05/14 04:01:11;;;;;;;3.58;3.28;;;21.20;67.90;;;;;;4873639;28;88664;-85
2023/05/14 04:03:36;;;;;;;3.80;3.50;;;21.20;67.90;;;;;;4886579;28;89338;-86
2023/05/14 04:06:03;;;;;;;3.60;3.30;;;21.20;68.00;;;;;;4872397;28;88749;-89
2023/05/14 04:08:28;;;;;;;4.20;3.85;;;21.20;67.90;;;;;;4877612;28;87826;-87
2023/05/14 04:10:54;;;;;;;3.53;3.22;;;21.20;68.00;;;;;;4874304;28;87511;-89
2023/05/14 04:13:20;;;;;;;3.67;3.38;;;21.20;67.90;;;;;;4874487;28;87520;-86
2023/05/14 04:15:45;;;;;;;3.47;3.17;;;21.20;67.90;;;;;;4872892;28;87852;-88
2023/05/14 04:18:11;;;;;;;4.07;3.60;;;21.20;68.10;;;;;;4886704;28;89438;-86
2023/05/14 04:20:37;;;;;;;4.22;3.83;;;21.20;68.10;;;;;;4873558;28;87041;-88
2023/05/14 04:23:03;;;;;;;3.15;2.95;;;21.20;67.80;;;;;;4871845;28;88068;-85
2023/05/14 04:25:29;;;;;;;3.67;3.35;;;21.20;68.10;;;;;;4874167;28;88757;-86
2023/05/14 04:27:55;;;;;;;3.80;3.50;;;21.20;68.00;;;;;;4873368;28;87607;-88
2023/05/14 04:30:20;;;;;;;3.53;3.22;;;21.20;68.10;;;;;;4871807;28;87500;-89
2023/05/14 04:32:46;;;;;;;3.65;3.30;;;21.20;68.20;;;;;;4873179;28;87521;-88
2023/05/14 04:35:12;;;;;;;3.70;3.40;;;21.20;68.00;;;;;;4873299;28;88245;-88
2023/05/14 04:37:38;;;;;;;3.58;3.28;;;21.20;68.00;;;;;;4872404;28;90278;-88
2023/05/14 04:40:07;;;;;;;3.75;3.45;;;21.20;68.00;;;;;;4872464;28;87195;-85
2023/05/14 04:42:33;;;;;;;3.50;3.20;;;21.20;68.10;;;;;;4886586;28;88489;-88
2023/05/14 04:44:59;;;;;;;3.40;3.10;;;21.20;68.10;;;;;;4871053;28;90562;-86
2023/05/14 04:47:25;;;;;;;3.47;3.17;;;21.20;68.00;;;;;;4873008;28;88400;-88
2023/05/14 04:49:51;;;;;;;4.32;3.92;;;21.20;68.10;;;;;;4887084;28;89079;-86
2023/05/14 04:52:16;;;;;;;3.70;3.35;;;21.20;67.80;;;;;;4873820;28;87904;-84
2023/05/14 04:54:42;;;;;;;3.65;3.35;;;21.30;68.00;;;;;;4872142;28;88290;-88
2023/05/14 04:57:08;;;;;;;3.35;3.05;;;21.30;67.80;;;;;;4872246;28;87605;-87
2023/05/14 04:59:34;;;;;;;3.00;2.55;;;21.30;67.70;;;;;;4861574;28;87804;-86
2023/05/14 05:01:59;;;;;;;3.30;3.00;;;21.30;67.80;;;;;;4861602;28;87811;-86
2023/05/14 05:04:26;;;;;;;3.90;3.50;;;21.30;67.90;;;;;;4884811;28;90462;-88
2023/05/14 05:06:51;;;;;;;4.20;2.97;;;21.30;67.80;;;;;;4868946;28;88304;-86
2023/05/14 05:09:17;;;;;;;3.40;3.10;;;21.20;68.00;;;;;;4870813;28;87022;-86
2023/05/14 05:11:43;;;;;;;6.15;4.07;;;21.20;67.80;;;;;;4869697;28;87370;-86
2023/05/14 05:14:09;;;;;;;5.40;4.22;;;21.30;66.80;;;;;;4869015;28;89183;-86
2023/05/14 05:16:34;;;;;;;3.95;3.50;;;21.30;65.30;;;;;;4883769;28;91940;-85
2023/05/14 05:19:00;;;;;;;5.38;4.40;;;21.30;66.30;;;;;;4870037;28;87336;-87
2023/05/14 05:21:26;;;;;;;4.88;4.47;;;21.40;65.40;;;;;;4870066;28;87400;-85
2023/05/14 05:23:52;;;;;;;4.03;3.63;;;21.30;66.90;;;;;;4870038;28;87857;-84
2023/05/14 05:26:17;;;;;;;4.45;4.10;;;21.30;67.50;;;;;;4868907;28;88152;-85
2023/05/14 05:28:43;;;;;;;4.68;4.20;;;21.30;67.80;;;;;;4869585;28;87307;-86
2023/05/14 05:31:09;;;;;;;5.18;4.70;;;21.30;68.10;;;;;;4866938;28;87802;-85
2023/05/14 05:33:34;;;;;;;5.22;4.72;;;21.30;68.30;;;;;;4865305;28;90734;-86
2023/05/14 05:36:00;;;;;;;5.03;4.63;;;21.20;68.20;;;;;;4869736;28;87779;-89
2023/05/14 05:38:26;;;;;;;5.35;4.55;;;21.20;68.20;;;;;;4885623;28;88340;-90
2023/05/14 05:40:52;;;;;;;5.40;4.90;;;21.30;67.60;;;;;;4887548;28;88313;-90
2023/05/14 05:43:17;;;;;;;6.25;5.53;;;21.30;67.70;;;;;;4874507;28;88282;-88
2023/05/14 05:45:44;;;;;;;5.88;5.00;;;21.30;68.10;;;;;;4873591;28;87879;-87
2023/05/14 05:48:10;;;;;;;5.55;5.13;;;21.20;68.10;;;;;;4872825;28;87773;-88
2023/05/14 05:50:36;;;;;;;5.15;4.75;;;21.20;68.10;;;;;;4869654;28;89466;-87
2023/05/14 05:53:02;;;;;;;7.80;5.30;;;21.30;67.00;;;;;;4875954;28;87691;-83
2023/05/14 05:55:28;;;;;;;5.28;4.78;;;21.40;67.10;;;;;;4893936;28;89400;-87
2023/05/14 05:57:55;;;;;;;5.47;4.97;;;21.30;67.60;;;;;;4877560;28;87456;-88
2023/05/14 06:00:20;;;;;;;5.95;5.45;;;21.30;67.60;;;;;;4876649;28;87002;-90
2023/05/14 06:02:48;;;;;;;5.72;4.28;;;21.20;68.00;;;;;;4876355;28;88714;-87
2023/05/14 06:05:13;;;;;;;5.80;5.20;;;21.20;67.70;;;;;;4877253;28;87401;-90
2023/05/14 06:07:39;;;;;;;5.40;4.90;;;21.20;67.80;;;;;;4893036;28;88075;-88
2023/05/14 06:10:05;;;;;;;5.50;5.03;;;21.20;67.80;;;;;;4876452;28;87860;-90
2023/05/14 06:12:31;;;;;;;5.57;5.07;;;21.20;68.00;;;;;;4892283;28;88794;-87
2023/05/14 06:14:57;;;;;;;8.93;5.50;;;21.10;67.90;;;;;;4891750;28;90499;-85
2023/05/14 06:17:23;;;;;;;5.03;4.60;;;21.20;67.90;;;;;;4874998;28;87394;-88
2023/05/14 06:19:50;;;;;;;7.70;5.35;;;21.20;67.70;;;;;;4873164;28;87239;-87
2023/05/14 06:22:16;;;;;;;6.95;5.35;;;21.10;67.90;;;;;;4873790;28;88596;-87
2023/05/14 06:24:42;;;;;;;5.90;4.93;;;21.20;67.90;;;;;;4887621;28;90560;-86
2023/05/14 06:27:09;;;;;;;5.25;4.75;;;21.20;67.80;;;;;;4874605;28;88342;-87
2023/05/14 06:29:35;;;;;;;5.35;4.85;;;21.30;67.50;;;;;;4873104;28;87342;-88
2023/05/14 06:32:01;;;;;;;5.38;4.88;;;21.20;67.50;;;;;;4873021;28;87905;-87
2023/05/14 06:34:27;;;;;;;8.38;5.15;;;21.20;68.10;;;;;;4874062;28;88187;-87
2023/05/14 06:36:53;;;;;;;6.30;5.03;;;21.20;68.20;;;;;;4872432;28;87583;-85
2023/05/14 06:39:18;;;;;;;5.82;5.22;;;21.30;68.10;;;;;;4874018;28;87744;-89
2023/05/14 06:41:44;;;;;;;6.57;5.38;;;21.20;68.80;;;;;;4872694;28;87617;-87
2023/05/14 06:44:10;;;;;;;5.63;4.90;;;21.20;68.30;;;;;;4872049;28;90379;-85
2023/05/14 06:46:36;;;;;;;9.23;5.40;;;21.20;68.60;;;;;;4871542;28;87436;-87
2023/05/14 06:49:01;;;;;;;5.97;5.38;;;21.30;68.40;;;;;;4867952;28;89094;-85
2023/05/14 06:51:27;;;;;;;7.82;5.32;;;21.30;68.60;;;;;;4868421;28;91911;-87
2023/05/14 06:53:54;;;;;;;7.25;5.05;;;21.30;68.50;;;;;;4885422;28;92502;-87
2023/05/14 06:56:21;;;;;;;6.82;5.05;;;21.20;68.60;;;;;;4869993;28;88027;-88
2023/05/14 06:58:47;;;;;;;5.38;4.88;;;21.40;68.40;;;;;;4871186;28;87815;-86
2023/05/14 07:01:13;;;;;;;8.30;4.85;;;21.30;68.40;;;;;;4888657;28;95048;-91
2023/05/14 07:03:39;;;;;;;5.43;4.90;;;21.30;68.40;;;;;;4889990;28;87795;-89
2023/05/14 07:06:05;;;;;;;5.60;5.10;;;21.30;68.70;;;;;;4891392;28;88068;-88
2023/05/14 07:08:31;;;;;;;6.55;4.97;;;21.30;68.80;;;;;;4886043;28;88094;-86
2023/05/14 07:10:57;;;;;;;7.53;5.40;;;21.30;68.80;;;;;;4890927;28;90263;-87
2023/05/14 07:13:23;;;;;;;7.22;5.60;;;21.40;69.10;;;;;;4892100;28;87910;-86
2023/05/14 07:15:50;;;;;;;11.80;7.20;;;21.30;68.80;;;;;;4895600;28;88398;-88
2023/05/14 07:18:15;;;;;;;34.90;19.80;;;21.40;68.80;;;;;;4893015;28;88273;-89
2023/05/14 07:20:41;;;;;;;38.03;22.42;;;21.40;65.00;;;;;;4891104;28;87921;-87
2023/05/14 07:23:07;;;;;;;24.23;16.40;;;21.30;63.10;;;;;;4890145;28;87819;-88
2023/05/14 07:25:32;;;;;;;15.63;10.70;;;21.30;65.60;;;;;;4892115;28;87174;-87
2023/05/14 07:27:58;;;;;;;18.90;10.75;;;21.30;67.30;;;;;;4889213;28;89749;-86
2023/05/14 07:30:24;;;;;;;21.05;11.57;;;21.40;67.60;;;;;;4889013;28;91842;-88
2023/05/14 07:32:49;;;;;;;19.15;11.95;;;21.40;67.60;;;;;;4890546;28;86915;-85
2023/05/14 07:35:15;;;;;;;19.33;12.80;;;21.40;67.60;;;;;;4889604;28;88283;-86
2023/05/14 07:37:41;;;;;;;22.30;13.10;;;21.40;67.50;;;;;;4888306;28;88364;-86
2023/05/14 07:40:07;;;;;;;20.70;12.50;;;21.50;67.50;;;;;;4887233;28;91181;-87
2023/05/14 07:42:33;;;;;;;26.08;13.60;;;21.50;67.40;;;;;;4887109;28;92685;-87
2023/05/14 07:44:59;;;;;;;25.70;13.07;;;21.50;67.70;;;;;;4887938;28;87862;-87
2023/05/14 07:47:25;;;;;;;28.65;14.55;;;21.50;67.70;;;;;;4888048;28;89659;-86
2023/05/14 07:49:54;;;;;;;29.63;14.43;;;21.50;68.10;;;;;;4880685;28;88361;-87
2023/05/14 07:52:20;;;;;;;25.45;14.43;;;21.50;68.20;;;;;;4905263;28;90215;-86
2023/05/14 07:54:45;;;;;;;24.42;14.38;;;21.60;68.20;;;;;;4889958;28;88249;-87
2023/05/14 07:57:11;;;;;;;23.77;14.18;;;21.60;67.60;;;;;;4888889;28;90196;-87
2023/05/14 07:59:36;;;;;;;30.13;15.52;;;21.80;64.60;;;;;;4887805;28;90422;-90
2023/05/14 08:02:02;;;;;;;27.08;14.65;;;21.90;65.40;;;;;;4890948;28;87714;-90
2023/05/14 08:04:28;;;;;;;22.45;13.52;;;21.90;65.20;;;;;;4893600;28;89018;-93
2023/05/14 08:06:55;;;;;;;27.65;15.35;;;21.80;62.80;;;;;;4890652;28;87550;-87
2023/05/14 08:09:20;;;;;;;25.88;15.25;;;21.90;64.50;;;;;;4880887;28;90325;-86
2023/05/14 08:11:46;;;;;;;25.08;14.55;;;21.80;65.60;;;;;;4891486;28;87365;-86
2023/05/14 08:14:13;;;;;;;23.08;15.15;;;21.80;66.20;;;;;;4886816;28;87117;-86
2023/05/14 08:16:38;;;;;;;33.00;16.15;;;21.70;66.80;;;;;;4885828;28;88093;-86
2023/05/14 08:19:04;;;;;;;26.13;15.73;;;21.80;66.90;;;;;;4888277;28;90966;-87
2023/05/14 08:21:31;;;;;;;30.75;16.92;;;21.70;67.30;;;;;;4889387;28;87524;-87
2023/05/14 08:23:57;;;;;;;25.73;15.70;;;21.80;67.10;;;;;;4903653;28;87403;-87
2023/05/14 08:26:22;;;;;;;31.25;17.08;;;21.80;67.20;;;;;;4888727;28;87472;-86
2023/05/14 08:28:48;;;;;;;29.40;17.08;;;21.80;67.90;;;;;;4888113;28;88850;-86
2023/05/14 08:31:14;;;;;;;28.10;16.08;;;21.80;67.80;;;;;;4888238;28;88598;-88
2023/05/14 08:33:40;;;;;;;27.05;16.48;;;21.80;68.00;;;;;;4887404;28;88938;-87
2023/05/14 08:36:06;;;;;;;29.17;16.42;;;21.80;68.00;;;;;;4887974;28;87906;-88
2023/05/14 08:38:32;;;;;;;35.35;16.85;;;21.80;68.20;;;;;;4890422;28;87459;-88
2023/05/14 08:40:59;;;;;;;28.80;17.27;;;21.80;68.30;;;;;;4889761;28;87856;-89
2023/05/14 08:43:49;;;;;;;40.35;18.63;;;21.80;68.60;;;;;;4889809;28;88171;-88
2023/05/14 08:46:16;;;;;;;26.35;16.73;;;21.80;68.50;;;;;;4889654;28;90621;-86
2023/05/14 08:48:46;;;;;;;25.67;15.98;;;21.90;68.50;;;;;;4890218;28;88124;-87
2023/05/14 08:51:12;;;;;;;32.47;17.83;;;21.90;68.40;;;;;;4890917;28;87804;-88
2023/05/14 08:53:39;;;;;;;28.92;17.15;;;21.90;68.60;;;;;;4888636;28;88961;-88
2023/05/14 08:56:07;;;;;;;26.77;16.58;;;21.90;69.40;;;;;;4902425;28;89293;-88
2023/05/14 08:58:32;;;;;;;28.33;18.40;;;21.90;68.60;;;;;;4890522;28;88780;-87
2023/05/14 09:00:58;;;;;;;26.73;17.10;;;21.90;68.60;;;;;;4886699;28;89569;-87
2023/05/14 09:03:24;;;;;;;24.88;16.15;;;22.00;68.50;;;;;;4887866;28;87875;-87
2023/05/14 09:05:50;;;;;;;23.75;16.30;;;22.00;68.40;;;;;;4887919;28;89317;-87
2023/05/14 09:08:16;;;;;;;28.80;16.27;;;22.00;68.40;;;;;;4887699;28;90867;-86
2023/05/14 09:10:42;;;;;;;29.10;16.75;;;22.00;68.30;;;;;;4889875;28;87762;-88
2023/05/14 09:13:09;;;;;;;27.13;16.95;;;22.10;68.20;;;;;;4889205;28;87935;-86
2023/05/14 09:15:37;;;;;;;32.05;16.92;;;22.00;68.20;;;;;;4889848;28;87983;-88
2023/05/14 09:18:06;;;;;;;26.95;16.65;;;22.00;68.30;;;;;;4889359;28;89023;-89
2023/05/14 09:20:32;;;;;;;24.65;16.35;;;22.00;68.30;;;;;;4890002;28;89245;-88
2023/05/14 09:23:00;;;;;;;22.83;15.45;;;22.00;68.30;;;;;;4890523;28;87397;-87
2023/05/14 09:25:27;;;;;;;23.67;16.80;;;22.10;68.20;;;;;;4891362;28;88070;-87
2023/05/14 09:27:54;;;;;;;26.60;17.92;;;22.10;68.50;;;;;;4891671;28;90785;-88
2023/05/14 09:30:19;;;;;;;24.88;15.95;;;22.20;68.20;;;;;;4890266;28;90138;-88
2023/05/14 09:32:47;;;;;;;27.25;15.93;;;22.20;67.80;;;;;;4891030;28;87980;-89
2023/05/14 09:35:21;;;;;;;26.08;17.00;;;22.20;67.90;;;;;;4893664;28;86856;-88
2023/05/14 09:37:48;;;;;;;24.10;15.70;;;22.20;67.90;;;;;;4893384;28;88501;-87
2023/05/14 09:40:15;;;;;;;25.20;15.90;;;22.30;67.90;;;;;;4893586;28;91152;-88
2023/05/14 09:42:40;;;;;;;22.77;15.23;;;22.40;67.60;;;;;;4892885;28;88302;-88
2023/05/14 09:45:10;;;;;;;24.58;15.38;;;22.30;67.70;;;;;;4892874;28;87440;-86
2023/05/14 09:47:37;;;;;;;22.23;14.88;;;22.40;67.70;;;;;;4892430;28;88097;-87
2023/05/14 09:50:04;;;;;;;26.00;16.23;;;22.40;67.30;;;;;;4893162;28;88591;-87
2023/05/14 09:52:30;;;;;;;24.40;15.38;;;22.40;67.60;;;;;;4891449;28;87895;-86
2023/05/14 09:54:56;;;;;;;22.00;15.68;;;22.40;68.40;;;;;;4892945;28;87619;-88
2023/05/14 09:57:21;;;;;;;24.73;16.05;;;22.40;67.70;;;;;;4892698;28;87236;-87
2023/05/14 09:59:47;;;;;;;24.90;15.82;;;22.40;67.40;;;;;;4891645;28;90326;-89
2023/05/14 10:02:24;;;;;;;25.95;17.02;;;22.30;67.70;;;;;;4891295;28;87463;-87
2023/05/14 10:04:51;;;;;;;22.73;15.18;;;22.30;67.60;;;;;;4906268;28;88514;-89
2023/05/14 10:07:24;;;;;;;21.50;15.30;;;22.40;67.80;;;;;;4890630;28;92521;-87
2023/05/14 10:09:57;;;;;;;20.38;13.98;;;22.40;67.60;;;;;;4891196;28;90198;-89
2023/05/14 10:12:24;;;;;;;20.08;15.10;;;22.40;67.50;;;;;;4893431;28;87879;-88
2023/05/14 10:14:54;;;;;;;18.30;15.35;;;22.40;67.90;;;;;;4891787;28;87988;-88
2023/05/14 10:17:21;;;;;;;25.08;15.55;;;22.40;67.70;;;;;;4893250;28;88131;-88
2023/05/14 10:19:53;;;;;;;24.30;15.93;;;22.40;67.80;;;;;;4892971;28;88220;-88
2023/05/14 10:22:22;;;;;;;21.55;15.05;;;22.40;67.80;;;;;;4891602;28;87487;-86
2023/05/14 10:24:51;;;;;;;19.85;14.63;;;22.40;67.80;;;;;;4890818;28;90431;-86
2023/05/14 10:27:21;;;;;;;23.23;14.90;;;22.30;68.00;;;;;;4892648;28;89945;-88
2023/05/14 10:29:54;;;;;;;22.80;14.15;;;22.30;67.80;;;;;;4906220;28;90093;-87
2023/05/14 10:32:23;;;;;;;20.33;14.20;;;22.30;67.90;;;;;;4890297;28;88081;-88
2023/05/14 10:34:49;;;;;;;22.02;14.65;;;22.30;68.00;;;;;;4891867;28;87547;-87
2023/05/14 10:37:19;;;;;;;20.17;14.43;;;22.30;67.90;;;;;;4891793;28;88072;-87
2023/05/14 10:39:48;;;;;;;24.70;14.38;;;22.30;67.90;;;;;;4905546;28;90693;-88
2023/05/14 10:42:22;;;;;;;19.48;14.40;;;22.30;68.10;;;;;;4890914;28;87772;-87
2023/05/14 10:44:55;;;;;;;20.27;14.98;;;22.30;68.10;;;;;;4890595;28;87443;-87
2023/05/14 10:47:21;;;;;;;21.33;13.90;;;22.20;68.00;;;;;;4897065;28;89387;-89
2023/05/14 10:49:48;;;;;;;19.75;14.88;;;22.30;68.10;;;;;;4891681;28;86384;-86
2023/05/14 10:52:19;;;;;;;20.95;14.73;;;22.20;68.10;;;;;;4890909;28;87720;-88
2023/05/14 10:54:53;;;;;;;20.10;13.32;;;22.20;68.30;;;;;;4892120;28;87480;-88
2023/05/14 10:57:21;;;;;;;21.13;14.23;;;22.20;68.00;;;;;;4891934;28;90605;-87
2023/05/14 10:59:48;;;;;;;20.67;14.18;;;22.20;68.30;;;;;;4906198;28;91689;-88
2023/05/14 11:02:38;;;;;;;19.35;13.75;;;22.20;68.10;;;;;;4892035;28;87731;-88
2023/05/14 11:05:15;;;;;;;18.50;13.75;;;22.20;68.10;;;;;;4880794;28;89528;-87
2023/05/14 11:07:47;;;;;;;19.08;14.57;;;22.20;68.20;;;;;;4890967;28;89593;-88
2023/05/14 11:10:16;;;;;;;18.88;14.50;;;22.20;68.10;;;;;;4890076;28;94648;-88
2023/05/14 11:12:43;;;;;;;;;;;22.20;68.20;;;;;;4891353;28;87795;-87
2023/05/14 11:15:11;;;;;;;18.58;13.05;;;22.20;68.10;;;;;;4894085;28;86474;-88
2023/05/14 11:17:39;;;;;;;20.15;14.00;;;22.20;68.00;;;;;;4896815;28;90411;-89
2023/05/14 11:20:06;;;;;;;17.60;13.30;;;22.20;68.40;;;;;;4880163;28;89856;-88
2023/05/14 11:22:33;;;;;;;18.40;13.40;;;22.20;68.30;;;;;;4891690;28;89172;-88
2023/05/14 11:24:58;;;;;;;18.42;13.52;;;22.20;68.20;;;;;;4891207;28;87484;-88
2023/05/14 11:27:25;;;;;;;19.38;13.52;;;22.10;68.20;;;;;;4890768;28;90733;-87
2023/05/14 11:29:51;;;;;;;18.67;13.38;;;22.20;68.10;;;;;;4889868;28;88242;-88
2023/05/14 11:32:19;;;;;;;20.17;13.45;;;22.20;69.00;;;;;;4889599;28;87011;-87
2023/05/14 11:34:45;;;;;;;18.05;13.75;;;22.20;68.10;;;;;;4889960;28;88279;-88
2023/05/14 11:37:11;;;;;;;17.80;13.90;;;22.20;68.30;;;;;;4889371;28;90465;-87
2023/05/14 11:39:38;;;;;;;19.13;13.52;;;22.20;68.20;;;;;;4891629;28;87533;-87
2023/05/14 11:42:10;;;;;;;19.50;13.25;;;22.20;68.20;;;;;;4889646;28;88189;-89
2023/05/14 11:44:37;;;;;;;15.88;12.02;;;22.20;68.30;;;;;;4883278;28;88531;-87
2023/05/14 11:47:03;;;;;;;23.70;14.02;;;22.20;68.20;;;;;;4891364;28;91679;-86
2023/05/14 11:49:36;;;;;;;20.10;13.55;;;22.20;68.10;;;;;;4890694;28;91000;-88
2023/05/14 11:52:04;;;;;;;17.65;12.65;;;22.20;68.20;;;;;;4890157;28;88056;-89
2023/05/14 11:54:32;;;;;;;17.17;12.60;;;22.20;68.00;;;;;;4904402;28;89626;-87
2023/05/14 11:56:59;;;;;;;19.05;13.48;;;22.20;68.20;;;;;;4890644;28;87381;-88
2023/05/14 11:59:27;;;;;;;18.05;12.65;;;22.20;68.20;;;;;;4889949;28;90319;-87
2023/05/14 12:01:54;;;;;;;17.02;12.63;;;22.20;68.00;;;;;;4905731;28;88092;-87
2023/05/14 12:04:21;;;;;;;18.48;13.18;;;22.20;67.90;;;;;;4907144;28;89645;-87
2023/05/14 12:06:53;;;;;;;15.43;11.98;;;22.20;67.70;;;;;;4889540;28;91200;-89
2023/05/14 12:09:20;;;;;;;16.23;12.18;;;22.20;67.60;;;;;;4889235;28;87861;-88
2023/05/14 12:11:47;;;;;;;14.30;12.43;;;22.20;67.70;;;;;;4890159;28;88219;-89
2023/05/14 12:14:19;;;;;;;16.25;11.95;;;22.20;67.70;;;;;;4905825;28;89587;-89
2023/05/14 12:16:45;;;;;;;16.77;12.10;;;22.20;67.80;;;;;;4890684;28;88032;-87
2023/05/14 12:19:14;;;;;;;17.45;12.50;;;22.20;67.80;;;;;;4889875;28;88749;-88
2023/05/14 12:21:42;;;;;;;16.85;12.10;;;22.20;67.80;;;;;;4888741;28;88380;-88
2023/05/14 12:24:18;;;;;;;19.98;12.05;;;22.20;67.80;;;;;;4890459;28;87642;-89
2023/05/14 12:26:49;;;;;;;16.75;11.88;;;22.30;67.70;;;;;;4885125;28;91564;-90
2023/05/14 12:29:16;;;;;;;15.07;12.18;;;22.30;67.60;;;;;;4871298;28;88876;-88
2023/05/14 12:31:49;;;;;;;18.20;12.85;;;22.30;67.60;;;;;;4870884;28;87125;-89
2023/05/14 12:34:16;;;;;;;19.15;13.00;;;22.20;67.50;;;;;;4878203;28;95001;-88
2023/05/14 12:36:42;;;;;;;16.10;12.50;;;22.20;67.80;;;;;;4886816;28;91477;-87